createdAt,value
2019-06-01T00:01:51.358Z,14.99
2019-06-01T00:04:20.058Z,15.04
2019-06-01T00:06:49.028Z,14.95
2019-06-01T00:09:17.773Z,14.88
2019-06-01T00:11:47.525Z,14.86
2019-06-01T00:14:16.421Z,14.89
2019-06-01T00:16:46.060Z,14.85
2019-06-01T00:19:15.236Z,14.80
2019-06-01T00:21:45.439Z,14.81
2019-06-01T00:24:14.455Z,14.89
2019-06-01T00:26:43.714Z,14.95
2019-06-01T00:29:12.544Z,14.90
2019-06-01T00:31:42.958Z,14.93
2019-06-01T00:34:12.071Z,14.90
2019-06-01T00:36:41.511Z,14.87
2019-06-01T00:39:10.674Z,14.79
2019-06-01T00:41:39.381Z,14.93
2019-06-01T00:44:08.351Z,15.04
2019-06-01T00:46:37.099Z,15.16
2019-06-01T00:49:06.237Z,15.28
2019-06-01T00:51:35.252Z,15.33
2019-06-01T00:54:04.403Z,15.33
2019-06-01T00:56:33.234Z,15.41
2019-06-01T00:59:02.208Z,15.42
2019-06-01T01:01:31.204Z,15.44
2019-06-01T01:03:59.889Z,15.44
2019-06-01T01:06:28.948Z,15.48
2019-06-01T01:08:57.550Z,15.54
2019-06-01T01:11:26.459Z,15.51
2019-06-01T01:13:55.458Z,15.52
2019-06-01T01:16:24.150Z,15.58
2019-06-01T01:18:53.832Z,15.55
2019-06-01T01:21:22.640Z,15.54
2019-06-01T01:23:52.950Z,15.48
2019-06-01T01:26:22.167Z,15.54
2019-06-01T01:28:51.053Z,15.55
2019-06-01T01:31:20.052Z,15.60
2019-06-01T01:33:49.361Z,15.56
2019-06-01T01:36:18.600Z,15.56
2019-06-01T01:38:48.251Z,15.59
2019-06-01T01:41:17.265Z,15.65
2019-06-01T01:43:45.948Z,15.67
2019-06-01T01:46:14.965Z,15.68
2019-06-01T01:48:43.614Z,15.67
2019-06-01T01:51:12.289Z,15.70
2019-06-01T01:53:40.925Z,15.66
2019-06-01T01:56:10.504Z,15.70
2019-06-01T01:58:39.142Z,15.58
2019-06-01T02:01:21.293Z,15.45
2019-06-01T02:03:38.519Z,15.44
2019-06-01T02:06:07.602Z,15.38
2019-06-01T02:08:36.601Z,15.36
2019-06-01T02:11:05.597Z,15.35
2019-06-01T02:13:34.784Z,15.39
2019-06-01T02:16:03.678Z,15.40
2019-06-01T02:18:32.336Z,15.38
2019-06-01T02:21:02.698Z,15.41
2019-06-01T02:23:31.589Z,15.50
2019-06-01T02:26:01.166Z,15.62
2019-06-01T02:28:30.803Z,15.51
2019-06-01T02:31:00.191Z,15.60
2019-06-01T02:33:29.609Z,15.60
2019-06-01T02:36:00.660Z,15.57
2019-06-01T02:38:29.438Z,15.58
2019-06-01T02:40:58.965Z,15.70
2019-06-01T02:43:28.360Z,15.64
2019-06-01T02:45:58.119Z,15.65
2019-06-01T02:48:27.154Z,15.63
2019-06-01T02:50:57.439Z,15.63
2019-06-01T02:53:26.670Z,15.55
2019-06-01T02:55:55.818Z,15.47
2019-06-01T02:58:24.540Z,15.47
2019-06-01T03:01:24.698Z,15.37
2019-06-01T03:03:57.421Z,15.31
2019-06-01T03:06:28.456Z,15.33
2019-06-01T03:08:59.739Z,15.27
2019-06-01T03:11:33.268Z,15.34
2019-06-01T03:14:02.549Z,15.52
2019-06-01T03:16:31.549Z,15.53
2019-06-01T03:19:01.974Z,15.53
2019-06-01T03:21:33.027Z,15.43
2019-06-01T03:24:06.163Z,15.39
2019-06-01T03:26:41.226Z,15.40
2019-06-01T03:29:13.921Z,15.44
2019-06-01T03:31:42.542Z,15.59
2019-06-01T03:34:12.147Z,15.44
2019-06-01T03:36:42.043Z,15.59
2019-06-01T03:39:12.881Z,15.60
2019-06-01T03:41:42.837Z,15.63
2019-06-01T03:44:12.972Z,15.62
2019-06-01T03:46:42.215Z,15.57
2019-06-01T03:49:11.955Z,15.66
2019-06-01T03:51:41.219Z,15.69
2019-06-01T03:54:10.174Z,15.64
2019-06-01T03:56:39.799Z,15.60
2019-06-01T03:59:09.330Z,15.56
2019-06-01T04:01:38.319Z,15.59
2019-06-01T04:04:07.319Z,15.81
2019-06-01T04:06:36.613Z,15.86
2019-06-01T04:09:07.742Z,15.81
2019-06-01T04:11:36.710Z,15.78
2019-06-01T04:14:06.180Z,15.86
2019-06-01T04:16:35.455Z,15.78
2019-06-01T04:19:04.349Z,15.88
2019-06-01T04:21:33.335Z,15.83
2019-06-01T04:24:02.554Z,15.80
2019-06-01T04:26:33.089Z,15.86
2019-06-01T04:29:02.364Z,15.93
2019-06-01T04:31:31.976Z,15.89
2019-06-01T04:34:00.615Z,15.87
2019-06-01T04:36:29.688Z,15.86
2019-06-01T04:38:58.490Z,16.03
2019-06-01T04:41:27.435Z,15.97
2019-06-01T04:43:56.082Z,16.01
2019-06-01T04:46:25.168Z,15.96
2019-06-01T04:48:54.115Z,15.99
2019-06-01T04:51:22.756Z,16.03
2019-06-01T04:53:51.697Z,16.03
2019-06-01T04:56:21.302Z,16.05
2019-06-01T04:58:49.909Z,16.06
2019-06-01T05:01:18.878Z,16.12
2019-06-01T05:03:47.872Z,16.06
2019-06-01T05:06:17.272Z,16.10
2019-06-01T05:08:46.140Z,16.07
2019-06-01T05:11:15.705Z,16.08
2019-06-01T05:13:44.768Z,16.28
2019-06-01T05:16:14.848Z,16.35
2019-06-01T05:18:43.982Z,16.31
2019-06-01T05:21:13.098Z,16.36
2019-06-01T05:23:42.071Z,16.55
2019-06-01T05:26:11.089Z,16.67
2019-06-01T05:28:40.069Z,16.64
2019-06-01T05:31:13.243Z,16.65
2019-06-01T05:33:39.347Z,16.84
2019-06-01T05:36:08.406Z,16.85
2019-06-01T05:38:37.777Z,16.94
2019-06-01T05:41:06.774Z,17.00
2019-06-01T05:43:35.969Z,17.07
2019-06-01T05:46:04.962Z,17.15
2019-06-01T05:48:34.161Z,17.17
2019-06-01T05:51:03.359Z,17.34
2019-06-01T05:53:32.359Z,17.38
2019-06-01T05:56:00.985Z,17.38
2019-06-01T05:58:30.218Z,17.42
2019-06-01T06:00:58.878Z,17.51
2019-06-01T06:03:39.870Z,17.63
2019-06-01T06:05:58.545Z,17.82
2019-06-01T06:08:27.442Z,17.93
2019-06-01T06:10:56.438Z,18.06
2019-06-01T06:13:25.633Z,18.19
2019-06-01T06:15:54.634Z,18.27
2019-06-01T06:18:23.306Z,18.17
2019-06-01T06:20:52.202Z,18.19
2019-06-01T06:23:22.626Z,18.28
2019-06-01T06:25:51.657Z,18.35
2019-06-01T06:28:20.842Z,18.34
2019-06-01T06:30:49.460Z,18.40
2019-06-01T06:33:19.361Z,18.34
2019-06-01T06:35:48.317Z,18.29
2019-06-01T06:38:17.880Z,18.32
2019-06-01T06:40:46.634Z,18.33
2019-06-01T06:43:20.085Z,18.41
2019-06-01T06:45:46.350Z,18.53
2019-06-01T06:48:15.034Z,18.61
2019-06-01T06:50:44.335Z,18.52
2019-06-01T06:53:25.380Z,18.67
2019-06-01T06:55:44.489Z,18.69
2019-06-01T06:58:13.534Z,18.74
2019-06-01T07:00:42.476Z,18.93
2019-06-01T07:03:11.106Z,19.06
2019-06-01T07:05:39.719Z,19.05
2019-06-01T07:08:08.383Z,18.98
2019-06-01T07:10:37.403Z,19.00
2019-06-01T07:13:06.100Z,19.04
2019-06-01T07:15:34.773Z,19.02
2019-06-01T07:18:03.425Z,19.21
2019-06-01T07:20:32.407Z,19.39
2019-06-01T07:23:01.378Z,19.38
2019-06-01T07:25:30.652Z,19.46
2019-06-01T07:27:59.952Z,19.50
2019-06-01T07:30:28.679Z,19.40
2019-06-01T07:32:57.742Z,19.30
2019-06-01T07:35:26.737Z,19.31
2019-06-01T07:37:55.400Z,19.31
2019-06-01T07:40:24.820Z,19.44
2019-06-01T07:42:54.247Z,19.50
2019-06-01T07:45:23.013Z,19.52
2019-06-01T07:47:51.585Z,19.53
2019-06-01T07:50:20.457Z,19.62
2019-06-01T07:52:49.390Z,19.63
2019-06-01T07:55:18.372Z,19.59
2019-06-01T07:57:47.267Z,19.69
2019-06-01T08:00:16.444Z,19.79
2019-06-01T08:02:45.096Z,19.89
2019-06-01T08:05:13.937Z,19.81
2019-06-01T08:07:42.830Z,19.87
2019-06-01T08:10:11.601Z,20.10
2019-06-01T08:12:40.821Z,20.34
2019-06-01T08:15:10.015Z,20.50
2019-06-01T08:17:39.319Z,20.68
2019-06-01T08:20:08.467Z,20.56
2019-06-01T08:22:37.216Z,20.70
2019-06-01T08:25:06.416Z,20.61
2019-06-01T08:27:35.397Z,20.72
2019-06-01T08:30:04.651Z,20.58
2019-06-01T08:32:33.892Z,20.57
2019-06-01T08:35:08.406Z,20.39
2019-06-01T08:37:33.660Z,20.45
2019-06-01T08:40:02.844Z,20.59
2019-06-01T08:42:31.821Z,20.55
2019-06-01T08:45:00.455Z,20.86
2019-06-01T08:47:29.999Z,20.93
2019-06-01T08:49:58.936Z,21.00
2019-06-01T08:52:28.101Z,21.02
2019-06-01T08:54:57.096Z,20.95
2019-06-01T08:57:26.085Z,20.76
2019-06-01T08:59:55.785Z,20.73
2019-06-01T09:02:24.792Z,20.46
2019-06-01T09:04:53.409Z,20.46
2019-06-01T09:07:22.373Z,20.37
2019-06-01T09:09:51.008Z,20.44
2019-06-01T09:12:20.056Z,20.22
2019-06-01T09:14:48.720Z,20.25
2019-06-01T09:17:18.845Z,20.31
2019-06-01T09:19:47.868Z,20.37
2019-06-01T09:22:16.887Z,20.38
2019-06-01T09:24:46.154Z,20.50
2019-06-01T09:27:15.142Z,20.61
2019-06-01T09:29:44.754Z,20.66
2019-06-01T09:32:13.954Z,20.67
2019-06-01T09:34:42.948Z,20.80
2019-06-01T09:37:11.936Z,20.93
2019-06-01T09:39:41.228Z,20.99
2019-06-01T09:42:09.851Z,20.76
2019-06-01T09:44:38.826Z,20.86
2019-06-01T09:47:07.476Z,20.68
2019-06-01T09:49:36.087Z,20.56
2019-06-01T09:52:04.890Z,20.65
2019-06-01T09:54:35.110Z,20.72
2019-06-01T09:57:04.793Z,20.74
2019-06-01T09:59:34.011Z,20.93
2019-06-01T10:02:03.226Z,21.10
2019-06-01T10:04:32.819Z,21.14
2019-06-01T10:07:01.465Z,21.26
2019-06-01T10:09:31.525Z,21.32
2019-06-01T10:12:00.530Z,21.34
2019-06-01T10:14:30.090Z,21.40
2019-06-01T10:16:59.311Z,21.23
2019-06-01T10:19:28.212Z,21.26
2019-06-01T10:21:56.892Z,21.48
2019-06-01T10:24:25.549Z,21.84
2019-06-01T10:26:54.783Z,21.95
2019-06-01T10:29:23.710Z,22.29
2019-06-01T10:31:52.662Z,21.97
2019-06-01T10:34:21.792Z,21.85
2019-06-01T10:36:50.516Z,22.13
2019-06-01T10:39:19.870Z,22.73
2019-06-01T10:41:48.659Z,22.88
2019-06-01T10:44:17.697Z,22.96
2019-06-01T10:46:46.628Z,22.93
2019-06-01T10:49:15.820Z,23.06
2019-06-01T10:51:44.711Z,23.38
2019-06-01T10:54:13.729Z,23.72
2019-06-01T10:56:42.609Z,23.87
2019-06-01T10:59:11.562Z,23.88
2019-06-01T11:01:40.951Z,23.71
2019-06-01T11:04:09.757Z,23.46
2019-06-01T11:06:44.886Z,24.19
2019-06-01T11:09:09.495Z,24.25
2019-06-01T11:11:39.098Z,24.19
2019-06-01T11:14:07.916Z,24.22
2019-06-01T11:16:37.300Z,24.35
2019-06-01T11:19:06.114Z,24.82
2019-06-01T11:21:35.521Z,24.58
2019-06-01T11:24:04.484Z,23.94
2019-06-01T11:26:33.401Z,23.19
2019-06-01T11:29:02.386Z,23.31
2019-06-01T11:31:31.378Z,23.47
2019-06-01T11:34:00.278Z,23.30
2019-06-01T11:36:29.245Z,23.62
2019-06-01T11:38:58.154Z,23.95
2019-06-01T11:41:27.049Z,23.98
2019-06-01T11:43:55.743Z,24.25
2019-06-01T11:46:25.034Z,24.70
2019-06-01T11:48:53.926Z,25.18
2019-06-01T11:51:22.615Z,25.06
2019-06-01T11:53:51.668Z,24.84
2019-06-01T11:56:20.266Z,24.28
2019-06-01T11:58:49.203Z,24.25
2019-06-01T12:01:18.488Z,24.33
2019-06-01T12:03:47.116Z,24.77
2019-06-01T12:06:15.744Z,25.02
2019-06-01T12:08:46.214Z,24.91
2019-06-01T12:11:15.484Z,24.62
2019-06-01T12:13:44.598Z,24.46
2019-06-01T12:16:13.460Z,25.04
2019-06-01T12:18:42.626Z,25.49
2019-06-01T12:21:11.484Z,25.76
2019-06-01T12:23:41.443Z,26.40
2019-06-01T12:26:10.936Z,26.44
2019-06-01T12:28:41.478Z,26.09
2019-06-01T12:31:11.043Z,25.79
2019-06-01T12:33:39.927Z,26.09
2019-06-01T12:36:09.247Z,26.21
2019-06-01T12:38:56.064Z,25.93
2019-06-01T12:41:27.541Z,25.91
2019-06-01T12:44:17.384Z,26.51
2019-06-01T12:46:46.962Z,26.92
2019-06-01T12:49:16.001Z,25.93
2019-06-01T12:51:44.836Z,25.44
2019-06-01T12:54:13.691Z,26.49
2019-06-01T12:56:42.880Z,26.57
2019-06-01T12:59:11.720Z,25.44
2019-06-01T13:01:41.100Z,25.89
2019-06-01T13:04:10.056Z,26.42
2019-06-01T13:06:38.778Z,26.62
2019-06-01T13:09:08.904Z,25.43
2019-06-01T13:11:37.669Z,25.31
2019-06-01T13:14:07.989Z,25.67
2019-06-01T13:16:36.797Z,26.31
2019-06-01T13:19:06.077Z,26.65
2019-06-01T13:21:34.905Z,26.45
2019-06-01T13:24:04.217Z,26.83
2019-06-01T13:26:33.236Z,26.89
2019-06-01T13:29:02.329Z,26.87
2019-06-01T13:31:31.427Z,26.72
2019-06-01T13:34:00.574Z,26.74
2019-06-01T13:36:29.623Z,26.99
2019-06-01T13:38:59.143Z,26.27
2019-06-01T13:41:27.848Z,26.64
2019-06-01T13:43:56.660Z,27.03
2019-06-01T13:46:25.732Z,26.47
2019-06-01T13:48:54.924Z,26.39
2019-06-01T13:51:23.656Z,27.24
2019-06-01T13:53:52.915Z,26.62
2019-06-01T13:56:21.967Z,26.75
2019-06-01T13:58:50.765Z,26.31
2019-06-01T14:01:19.444Z,26.40
2019-06-01T14:03:49.382Z,26.63
2019-06-01T14:06:18.733Z,26.59
2019-06-01T14:08:47.453Z,26.29
2019-06-01T14:11:16.583Z,26.58
2019-06-01T14:13:45.564Z,26.92
2019-06-01T14:16:14.677Z,26.63
2019-06-01T14:18:43.371Z,26.90
2019-06-01T14:21:12.420Z,27.02
2019-06-01T14:23:41.443Z,26.91
2019-06-01T14:26:10.405Z,26.59
2019-06-01T14:28:39.929Z,26.49
2019-06-01T14:31:08.705Z,26.65
2019-06-01T14:33:37.607Z,26.81
2019-06-01T14:36:06.330Z,26.79
2019-06-01T14:38:46.690Z,26.24
2019-06-01T14:41:06.037Z,26.47
2019-06-01T14:43:35.238Z,26.05
2019-06-01T14:46:04.272Z,25.86
2019-06-01T14:48:33.235Z,26.06
2019-06-01T14:51:02.198Z,25.96
2019-06-01T14:53:30.954Z,26.32
2019-06-01T14:55:59.991Z,26.03
2019-06-01T14:58:28.788Z,24.86
2019-06-01T15:00:58.587Z,25.22
2019-06-01T15:03:27.614Z,23.96
2019-06-01T15:05:56.608Z,24.25
2019-06-01T15:08:27.008Z,24.65
2019-06-01T15:10:57.044Z,24.21
2019-06-01T15:13:25.981Z,24.42
2019-06-01T15:15:55.618Z,24.48
2019-06-01T15:18:24.535Z,24.30
2019-06-01T15:20:53.794Z,23.84
2019-06-01T15:23:22.782Z,24.10
2019-06-01T15:25:52.362Z,24.51
2019-06-01T15:28:21.550Z,24.35
2019-06-01T15:30:50.893Z,24.07
2019-06-01T15:33:21.368Z,24.11
2019-06-01T15:35:52.118Z,24.14
2019-06-01T15:38:21.019Z,24.55
2019-06-01T15:40:49.743Z,23.94
2019-06-01T15:43:18.767Z,24.26
2019-06-01T15:45:47.848Z,24.34
2019-06-01T15:48:16.565Z,24.49
2019-06-01T15:50:45.561Z,24.77
2019-06-01T15:53:14.931Z,24.72
2019-06-01T15:55:44.305Z,24.61
2019-06-01T15:58:13.734Z,24.40
2019-06-01T16:00:42.484Z,24.41
2019-06-01T16:03:11.133Z,24.27
2019-06-01T16:05:39.900Z,23.94
2019-06-01T16:08:08.995Z,24.14
2019-06-01T16:10:37.826Z,23.76
2019-06-01T16:13:06.516Z,23.93
2019-06-01T16:15:35.532Z,23.88
2019-06-01T16:18:04.438Z,23.78
2019-06-01T16:20:33.572Z,23.25
2019-06-01T16:23:02.606Z,23.10
2019-06-01T16:25:34.055Z,23.72
2019-06-01T16:28:03.906Z,23.46
2019-06-01T16:30:37.429Z,23.20
2019-06-01T16:33:06.226Z,23.47
2019-06-01T16:35:35.192Z,23.76
2019-06-01T16:38:05.729Z,23.41
2019-06-01T16:40:35.258Z,24.05
2019-06-01T16:43:05.589Z,23.72
2019-06-01T16:45:34.865Z,23.82
2019-06-01T16:48:03.843Z,23.42
2019-06-01T16:50:32.560Z,23.62
2019-06-01T16:53:02.123Z,23.24
2019-06-01T16:55:31.636Z,23.36
2019-06-01T16:58:01.211Z,22.71
2019-06-01T17:00:30.455Z,23.13
2019-06-01T17:02:59.159Z,22.54
2019-06-01T17:05:27.809Z,22.41
2019-06-01T17:07:56.828Z,22.71
2019-06-01T17:10:26.678Z,22.64
2019-06-01T17:12:56.828Z,22.61
2019-06-01T17:15:26.472Z,22.38
2019-06-01T17:17:56.881Z,22.67
2019-06-01T17:20:51.508Z,22.22
2019-06-01T17:23:26.758Z,21.69
2019-06-01T17:25:50.620Z,22.08
2019-06-01T17:28:19.727Z,22.10
2019-06-01T17:30:48.988Z,22.14
2019-06-01T17:33:18.926Z,21.51
2019-06-01T17:35:47.923Z,21.96
2019-06-01T17:38:16.576Z,21.42
2019-06-01T17:40:45.902Z,21.62
2019-06-01T17:43:15.111Z,21.32
2019-06-01T17:45:43.921Z,21.56
2019-06-01T17:48:25.213Z,21.25
2019-06-01T17:50:43.153Z,21.07
2019-06-01T17:53:13.021Z,21.18
2019-06-01T17:55:42.632Z,20.99
2019-06-01T17:58:12.512Z,20.94
2019-06-01T18:00:42.095Z,20.43
2019-06-01T18:03:12.047Z,20.14
2019-06-01T18:05:41.232Z,19.87
2019-06-01T18:08:10.435Z,19.93
2019-06-01T18:10:52.398Z,19.46
2019-06-01T18:13:10.576Z,19.29
2019-06-01T18:15:39.793Z,19.01
2019-06-01T18:18:10.360Z,19.16
2019-06-01T18:20:39.319Z,19.28
2019-06-01T18:23:10.124Z,19.61
2019-06-01T18:25:38.891Z,19.45
2019-06-01T18:28:14.651Z,19.35
2019-06-01T18:30:38.610Z,19.05
2019-06-01T18:33:07.325Z,18.84
2019-06-01T18:35:36.851Z,18.71
2019-06-01T18:38:05.973Z,18.48
2019-06-01T18:40:34.967Z,18.38
2019-06-01T18:43:07.842Z,18.42
2019-06-01T18:45:37.199Z,18.21
2019-06-01T18:48:06.239Z,18.21
2019-06-01T18:50:35.863Z,18.23
2019-06-01T18:53:06.033Z,18.01
2019-06-01T18:55:35.884Z,17.86
2019-06-01T18:58:06.393Z,17.96
2019-06-01T19:00:39.342Z,17.67
2019-06-01T19:03:07.235Z,17.70
2019-06-01T19:05:36.210Z,17.64
2019-06-01T19:08:05.152Z,17.56
2019-06-01T19:10:34.217Z,17.34
2019-06-01T19:13:02.881Z,17.42
2019-06-01T19:15:31.828Z,17.38
2019-06-01T19:18:00.811Z,17.39
2019-06-01T19:20:33.184Z,17.42
2019-06-01T19:23:00.643Z,17.42
2019-06-01T19:25:29.328Z,17.41
2019-06-01T19:27:58.009Z,17.39
2019-06-01T19:30:37.916Z,17.44
2019-06-01T19:33:11.015Z,17.02
2019-06-01T19:35:38.943Z,17.02
2019-06-01T19:38:08.947Z,16.94
2019-06-01T19:40:39.397Z,17.03
2019-06-01T19:43:09.440Z,16.93
2019-06-01T19:45:38.206Z,16.90
2019-06-01T19:48:08.232Z,16.70
2019-06-01T19:50:37.105Z,16.65
2019-06-01T19:53:06.099Z,16.65
2019-06-01T19:55:35.395Z,16.60
2019-06-01T19:58:04.354Z,16.49
2019-06-01T20:00:33.567Z,16.41
2019-06-01T20:03:02.845Z,16.21
2019-06-01T20:05:32.282Z,15.95
2019-06-01T20:08:01.310Z,15.98
2019-06-01T20:10:30.491Z,16.11
2019-06-01T20:12:59.552Z,16.16
2019-06-01T20:15:29.410Z,16.03
2019-06-01T20:17:58.927Z,15.99
2019-06-01T20:20:27.751Z,15.89
2019-06-01T20:22:57.213Z,15.94
2019-06-01T20:25:26.206Z,15.97
2019-06-01T20:27:54.998Z,16.03
2019-06-01T20:30:24.293Z,16.00
2019-06-01T20:32:53.017Z,15.88
2019-06-01T20:35:22.196Z,15.83
2019-06-01T20:37:51.099Z,15.83
2019-06-01T20:40:20.465Z,15.89
2019-06-01T20:42:49.228Z,15.85
2019-06-01T20:45:18.783Z,15.93
2019-06-01T20:47:47.646Z,15.93
2019-06-01T20:50:18.683Z,15.82
2019-06-01T20:52:47.729Z,15.68
2019-06-01T20:55:19.134Z,15.71
2019-06-01T20:57:48.089Z,15.64
2019-06-01T21:00:17.777Z,15.57
2019-06-01T21:02:46.794Z,15.49
2019-06-01T21:05:15.863Z,15.31
2019-06-01T21:07:44.930Z,15.21
2019-06-01T21:10:14.423Z,15.15
2019-06-01T21:12:45.649Z,15.17
2019-06-01T21:15:15.084Z,15.04
2019-06-01T21:17:44.577Z,15.03
2019-06-01T21:20:18.780Z,14.94
2019-06-01T21:22:44.306Z,14.95
2019-06-01T21:25:14.743Z,14.94
2019-06-01T21:27:44.233Z,14.98
2019-06-01T21:30:14.738Z,14.89
2019-06-01T21:32:44.178Z,14.87
2019-06-01T21:35:13.166Z,14.81
2019-06-01T21:37:42.787Z,14.83
2019-06-01T21:40:11.687Z,14.71
2019-06-01T21:42:40.851Z,14.76
2019-06-01T21:45:10.885Z,14.70
2019-06-01T21:47:40.392Z,14.69
2019-06-01T21:50:10.000Z,14.64
2019-06-01T21:52:39.142Z,14.52
2019-06-01T21:55:08.675Z,14.58
2019-06-01T21:57:37.680Z,14.70
2019-06-01T22:00:08.384Z,14.71
2019-06-01T22:02:37.271Z,14.64
2019-06-01T22:05:06.574Z,14.58
2019-06-01T22:07:35.821Z,14.61
2019-06-01T22:10:05.171Z,14.42
2019-06-01T22:12:34.129Z,14.38
2019-06-01T22:15:03.030Z,14.35
2019-06-01T22:17:32.015Z,14.26
2019-06-01T22:20:00.649Z,14.26
2019-06-01T22:22:29.304Z,14.27
2019-06-01T22:24:58.605Z,14.31
2019-06-01T22:27:28.515Z,14.28
2019-06-01T22:29:57.484Z,14.33
2019-06-01T22:32:29.533Z,14.33
2019-06-01T22:34:56.821Z,14.27
2019-06-01T22:37:25.867Z,14.22
2019-06-01T22:39:54.447Z,14.18
2019-06-01T22:42:24.297Z,14.12
2019-06-01T22:44:53.010Z,14.07
2019-06-01T22:47:22.475Z,14.07
2019-06-01T22:49:51.291Z,14.06
2019-06-01T22:52:20.980Z,14.06
2019-06-01T22:54:49.807Z,14.03
2019-06-01T22:57:18.443Z,14.10
2019-06-01T22:59:47.356Z,14.20
2019-06-01T23:02:16.248Z,14.26
2019-06-01T23:04:45.154Z,14.18
2019-06-01T23:07:13.775Z,14.13
2019-06-01T23:09:42.394Z,14.26
2019-06-01T23:12:11.112Z,14.32
2019-06-01T23:14:40.708Z,14.24
2019-06-01T23:17:10.003Z,14.31
2019-06-01T23:19:39.099Z,14.33
2019-06-01T23:22:08.178Z,14.27
2019-06-01T23:24:36.789Z,14.30
2019-06-01T23:27:05.581Z,14.28
2019-06-01T23:29:34.977Z,14.24
2019-06-01T23:32:03.880Z,14.18
2019-06-01T23:34:32.832Z,14.12
2019-06-01T23:37:01.593Z,14.05
2019-06-01T23:39:30.847Z,14.00
2019-06-01T23:41:59.947Z,13.98
2019-06-01T23:44:31.911Z,13.91
2019-06-01T23:46:59.566Z,13.86
2019-06-01T23:49:29.243Z,13.87
2019-06-01T23:51:58.378Z,14.37
2019-06-01T23:54:27.858Z,14.61
2019-06-01T23:56:56.788Z,14.63
2019-06-01T23:59:27.942Z,14.73
